Emerald Leader — C6WP4 — position and weather

sailwx.info

Track history (hours):
 
Tides and Currents Weather Stations Pressure Air Temp Water Temp Dewpoint Dewpoint Depression Visibility Wind Speed Wind Dir Waves Ship Positions

Emerald Leader

Last reported at 2016-May-28 19:33 UTC. Time now 2016-May-28 19:44 UTC.
Position N 49°43' W 000°44'.

Length 176 m; draft 8.5 m.

Type: Cargo ship. MMSI: 308688000.

Date/timePositionNaut miles runAvg speedWind from/ knotsBaromVisibWave heightAir tempDewpointWater temp
2016-May-28 19:33N 49°43' W 000°44'2 1.7
2016-May-28 18:33N 49°42' W 000°42'7 7.1
2016-May-28 17:33N 49°45' W 000°52'1 1.1
2016-May-28 16:33N 49°45' W 000°54'4 3.6
2016-May-28 15:34N 49°47' W 000°58'9 7.8
2016-May-28 14:27N 49°51' W 001°11'9 8.9
2016-May-28 13:28N 49°54' W 001°23'1010.9
2016-May-28 12:32N 49°55' W 001°39'3615.5
2016-May-28 10:13N 49°51' W 002°34'1014.6
2016-May-28 09:34N 49°50' W 002°49'1414.2
2016-May-28 08:33N 49°44' W 003°09'1413.9
2016-May-28 07:33N 49°37' W 003°28'1813.7
2016-May-28 06:16N 49°28' W 003°51'1013.6
2016-May-28 05:33N 49°23' W 004°04'1313.3
2016-May-28 04:33N 49°16' W 004°22'1313.0
2016-May-28 03:33N 49°10' W 004°39'1312.7
2016-May-28 02:33N 49°03' W 004°55'1212.4
2016-May-28 01:33N 48°56' W 005°11'1312.5
2016-May-28 00:33N 48°49' W 005°27'1212.2
2016-May-27 23:33N 48°41' W 005°40'1010.0
2016-May-27 22:33N 48°32' W 005°47'1413.4
2016-May-27 21:32N 48°20' W 005°57'1913.7
2016-May-27 20:09N 48°03' W 006°08'  
2016-May-25 10:28N 39°08' W 009°53'1212.7
2016-May-25 09:33N 38°56' W 009°52'1312.8
2016-May-25 08:33N 38°43' W 009°52'1212.2
2016-May-25 07:33N 38°31' W 009°49'1212.2
2016-May-25 06:33N 38°20' W 009°45'1414.4
2016-May-25 05:33N 38°06' W 009°41'1514.8
2016-May-25 04:33N 37°51' W 009°37'22413.6
2016-May-24 12:04N 35°57' W 005°35'814.9
2016-May-24 11:34N 35°60' W 005°26'25315.7
2016-May-23 19:28N 36°41' W 000°17'1716.3
2016-May-23 18:27N 36°44' E 000°04'1415.7
2016-May-23 17:33N 36°47' E 000°21'3315.8
2016-May-23 15:26N 36°53' E 001°02'34215.5
2016-May-22 17:24N 37°39' E 008°08'1416.0
2016-May-22 16:32N 37°41' E 008°26'1615.9
2016-May-22 15:33N 37°44' E 008°45'1616.0
2016-May-22 14:33N 37°45' E 009°05'1616.2
2016-May-22 13:33N 37°43' E 009°26'6515.1
2016-May-22 09:13N 37°34' E 010°47'2514.9
2016-May-22 07:33N 37°26' E 011°17'4915.7
2016-May-22 04:25N 37°03' E 012°12'1515.4
2016-May-22 03:28N 36°58' E 012°29'1415.3
2016-May-22 02:32N 36°53' E 012°46'1515.2
2016-May-22 01:33N 36°49' E 013°04'1515.1
2016-May-22 00:33N 36°45' E 013°22'1515.2
2016-May-21 23:33N 36°40' E 013°40'1515.4
2016-May-21 22:33N 36°36' E 013°58'1515.5
2016-May-21 21:34N 36°31' E 014°16'1615.5
2016-May-21 20:33N 36°26' E 014°35'1515.4
2016-May-21 19:33N 36°25' E 014°54'41714.9
2016-May-20 15:33N 36°48' E 023°32'1515.0
2016-May-20 14:33N 37°01' E 023°42'1515.4
2016-May-20 13:34N 37°14' E 023°52'1615.6
2016-May-20 12:33N 37°27' E 024°02'1915.7
2016-May-20 11:19N 37°44' E 024°15'1216.0
2016-May-20 10:34N 37°50' E 024°28'26213.0
2016-May-19 14:20N 40°26' E 029°00'3 0.4
2016-May-19 05:33N 40°25' E 029°05'3 2.9
2016-May-19 04:33N 40°25' E 029°01'17 5.1
2016-May-19 01:06N 40°42' E 028°58'712.9
2016-May-19 00:33N 40°44' E 029°07'1111.0
2016-May-18 23:33N 40°45' E 029°22'  
Track history (hours):
 
Tides and Currents Weather Stations Pressure Air Temp Water Temp Dewpoint Dewpoint Depression Visibility Wind Speed Wind Dir Waves Ship Positions

Emerald Leader

Last reported at 2016-May-28 19:33 UTC. Time now 2016-May-28 19:44 UTC.
Position N 49°43' W 000°44'.

Length 176 m; draft 8.5 m.

Type: Cargo ship. MMSI: 308688000.

Date/timePositionNaut miles runAvg speedWind from/ knotsBaromVisibWave heightAir tempDewpointWater temp
2016-May-28 19:33N 49°43' W 000°44'2 1.7
2016-May-28 18:33N 49°42' W 000°42'7 7.1
2016-May-28 17:33N 49°45' W 000°52'1 1.1
2016-May-28 16:33N 49°45' W 000°54'4 3.6
2016-May-28 15:34N 49°47' W 000°58'9 7.8
2016-May-28 14:27N 49°51' W 001°11'9 8.9
2016-May-28 13:28N 49°54' W 001°23'1010.9
2016-May-28 12:32N 49°55' W 001°39'3615.5
2016-May-28 10:13N 49°51' W 002°34'1014.6
2016-May-28 09:34N 49°50' W 002°49'1414.2
2016-May-28 08:33N 49°44' W 003°09'1413.9
2016-May-28 07:33N 49°37' W 003°28'1813.7
2016-May-28 06:16N 49°28' W 003°51'1013.6
2016-May-28 05:33N 49°23' W 004°04'1313.3
2016-May-28 04:33N 49°16' W 004°22'1313.0
2016-May-28 03:33N 49°10' W 004°39'1312.7
2016-May-28 02:33N 49°03' W 004°55'1212.4
2016-May-28 01:33N 48°56' W 005°11'1312.5
2016-May-28 00:33N 48°49' W 005°27'1212.2
2016-May-27 23:33N 48°41' W 005°40'1010.0
2016-May-27 22:33N 48°32' W 005°47'1413.4
2016-May-27 21:32N 48°20' W 005°57'1913.7
2016-May-27 20:09N 48°03' W 006°08'  
2016-May-25 10:28N 39°08' W 009°53'1212.7
2016-May-25 09:33N 38°56' W 009°52'1312.8
2016-May-25 08:33N 38°43' W 009°52'1212.2
2016-May-25 07:33N 38°31' W 009°49'1212.2
2016-May-25 06:33N 38°20' W 009°45'1414.4
2016-May-25 05:33N 38°06' W 009°41'1514.8
2016-May-25 04:33N 37°51' W 009°37'22413.6
2016-May-24 12:04N 35°57' W 005°35'814.9
2016-May-24 11:34N 35°60' W 005°26'25315.7
2016-May-23 19:28N 36°41' W 000°17'1716.3
2016-May-23 18:27N 36°44' E 000°04'1415.7
2016-May-23 17:33N 36°47' E 000°21'3315.8
2016-May-23 15:26N 36°53' E 001°02'34215.5
2016-May-22 17:24N 37°39' E 008°08'1416.0
2016-May-22 16:32N 37°41' E 008°26'1615.9
2016-May-22 15:33N 37°44' E 008°45'1616.0
2016-May-22 14:33N 37°45' E 009°05'1616.2
2016-May-22 13:33N 37°43' E 009°26'6515.1
2016-May-22 09:13N 37°34' E 010°47'2514.9
2016-May-22 07:33N 37°26' E 011°17'4915.7
2016-May-22 04:25N 37°03' E 012°12'1515.4
2016-May-22 03:28N 36°58' E 012°29'1415.3
2016-May-22 02:32N 36°53' E 012°46'1515.2
2016-May-22 01:33N 36°49' E 013°04'1515.1
2016-May-22 00:33N 36°45' E 013°22'1515.2
2016-May-21 23:33N 36°40' E 013°40'1515.4
2016-May-21 22:33N 36°36' E 013°58'1515.5
2016-May-21 21:34N 36°31' E 014°16'1615.5
2016-May-21 20:33N 36°26' E 014°35'1515.4
2016-May-21 19:33N 36°25' E 014°54'41714.9
2016-May-20 15:33N 36°48' E 023°32'1515.0
2016-May-20 14:33N 37°01' E 023°42'1515.4
2016-May-20 13:34N 37°14' E 023°52'1615.6
2016-May-20 12:33N 37°27' E 024°02'1915.7
2016-May-20 11:19N 37°44' E 024°15'1216.0
2016-May-20 10:34N 37°50' E 024°28'26213.0
2016-May-19 14:20N 40°26' E 029°00'3 0.4
2016-May-19 05:33N 40°25' E 029°05'3 2.9
2016-May-19 04:33N 40°25' E 029°01'17 5.1
2016-May-19 01:06N 40°42' E 028°58'712.9
2016-May-19 00:33N 40°44' E 029°07'1111.0
2016-May-18 23:33N 40°45' E 029°22'  

Dump ship's entire track history